Time;durP1;ratioP1;P1;durP2;ratioP2;P2;SDS_P1;SDS_P2;PMS_P1;PMS_P2;Temp;Humidity;BMP_temperature;BMP_pressure;BME280_temperature;BME280_humidity;BME280_pressure;Samples;Min_cycle;Max_cycle;Signal;HPM_P1;HPM_P2
2020/12/22 00:00:24;;;;;;;6.67;3.60;;;7.50;99.90;;;;;;4842833;29;20173;-93
2020/12/22 00:02:50;;;;;;;5.83;3.93;;;7.50;99.90;;;;;;4842436;29;20797;-93
2020/12/22 00:05:16;;;;;;;7.70;4.77;;;7.50;99.90;;;;;;4842802;29;20177;-92
2020/12/22 00:07:42;;;;;;;6.97;4.27;;;7.50;99.90;;;;;;4842715;29;20253;-93
2020/12/22 00:10:10;;;;;;;6.03;4.33;;;7.50;99.90;;;;;;4843006;29;20181;-93
2020/12/22 00:12:39;;;;;;;6.43;4.50;;;7.50;99.90;;;;;;4842919;29;20184;-93
2020/12/22 00:15:07;;;;;;;6.67;4.73;;;7.40;99.90;;;;;;4843308;29;20201;-93
2020/12/22 00:17:32;;;;;;;13.47;5.00;;;7.40;99.90;;;;;;4843292;29;20553;-92
2020/12/22 00:19:58;;;;;;;7.10;5.30;;;7.40;99.90;;;;;;4843358;29;20185;-92
2020/12/22 00:22:24;;;;;;;6.73;5.23;;;7.30;99.90;;;;;;4843401;29;20209;-92
2020/12/22 00:24:50;;;;;;;6.67;5.13;;;7.30;99.90;;;;;;4843322;29;20185;-92
2020/12/22 00:27:16;;;;;;;7.03;4.80;;;7.20;99.90;;;;;;4844120;29;20264;-92
2020/12/22 00:29:41;;;;;;;7.27;5.47;;;7.20;99.90;;;;;;4843085;29;20181;-92
2020/12/22 00:32:07;;;;;;;7.53;5.17;;;7.30;99.90;;;;;;4842719;29;20257;-92
2020/12/22 00:34:34;;;;;;;7.93;4.80;;;7.30;99.90;;;;;;4842460;29;20630;-93
2020/12/22 00:37:00;;;;;;;8.60;5.50;;;7.30;99.90;;;;;;4842625;29;20204;-92
2020/12/22 00:39:27;;;;;;;11.73;5.57;;;7.30;99.90;;;;;;4842962;29;20226;-93
2020/12/22 00:41:56;;;;;;;7.90;5.30;;;7.30;99.90;;;;;;4843053;29;20201;-92
2020/12/22 00:44:23;;;;;;;7.93;5.13;;;7.30;99.90;;;;;;4844805;29;20181;-91
2020/12/22 00:46:49;;;;;;;10.33;5.23;;;7.30;99.90;;;;;;4848693;29;20192;-92
2020/12/22 00:49:14;;;;;;;11.20;5.17;;;7.30;99.90;;;;;;4849608;29;20182;-92
2020/12/22 00:51:40;;;;;;;8.07;5.10;;;7.30;99.90;;;;;;4847491;29;20574;-92
2020/12/22 00:54:06;;;;;;;6.73;5.57;;;7.30;99.90;;;;;;4847075;29;20177;-92
2020/12/22 00:56:32;;;;;;;8.30;5.53;;;7.30;99.90;;;;;;4847983;29;20177;-92
2020/12/22 00:58:58;;;;;;;7.47;5.63;;;7.30;99.90;;;;;;4849123;29;20182;-93
2020/12/22 01:01:24;;;;;;;8.10;5.73;;;7.40;99.90;;;;;;4847575;29;20239;-94
2020/12/22 01:03:50;;;;;;;7.90;5.07;;;7.30;99.90;;;;;;4849140;29;20182;-92
2020/12/22 01:06:16;;;;;;;6.93;4.80;;;7.40;99.90;;;;;;4848712;29;20182;-93
2020/12/22 01:08:43;;;;;;;6.63;5.03;;;7.40;99.90;;;;;;4848871;29;20196;-93
2020/12/22 01:11:09;;;;;;;6.80;4.93;;;7.30;99.90;;;;;;4848529;29;20212;-92
2020/12/22 01:13:35;;;;;;;7.87;4.77;;;7.40;99.90;;;;;;4848705;29;20206;-92
2020/12/22 01:16:02;;;;;;;6.87;4.37;;;7.40;99.90;;;;;;4847840;29;20213;-93
2020/12/22 01:18:28;;;;;;;6.63;3.93;;;7.50;99.90;;;;;;4848270;29;20174;-93
2020/12/22 01:20:53;;;;;;;5.17;3.67;;;7.50;99.90;;;;;;4848290;29;20261;-92
2020/12/22 01:23:19;;;;;;;6.47;4.00;;;7.50;99.90;;;;;;4847770;29;20173;-93
2020/12/22 01:25:45;;;;;;;4.60;3.00;;;7.60;99.90;;;;;;4847303;29;20181;-92
2020/12/22 01:28:12;;;;;;;4.17;3.13;;;7.60;99.90;;;;;;4847107;29;20253;-92
2020/12/22 01:30:38;;;;;;;3.80;3.30;;;7.60;99.90;;;;;;4848411;29;20231;-93
2020/12/22 01:33:05;;;;;;;4.07;3.20;;;7.60;99.90;;;;;;4847468;29;20717;-93
2020/12/22 01:35:31;;;;;;;3.50;3.03;;;7.60;99.90;;;;;;4847481;29;20205;-92
2020/12/22 01:37:58;;;;;;;3.60;2.70;;;7.70;99.90;;;;;;4847343;29;20231;-92
2020/12/22 01:40:24;;;;;;;4.97;2.93;;;7.70;99.90;;;;;;4846870;29;20221;-93
2020/12/22 01:42:49;;;;;;;4.43;2.90;;;7.70;99.90;;;;;;4847606;29;20178;-93
2020/12/22 01:45:15;;;;;;;2.60;2.40;;;7.70;99.90;;;;;;4846688;29;20612;-93
2020/12/22 01:47:46;;;;;;;5.33;2.70;;;7.80;99.90;;;;;;4846580;29;20554;-92
2020/12/22 01:50:15;;;;;;;4.17;2.87;;;7.80;99.90;;;;;;4847030;29;20184;-92
2020/12/22 01:52:42;;;;;;;3.63;2.43;;;7.80;99.90;;;;;;4846477;29;20215;-92
2020/12/22 01:55:08;;;;;;;3.60;2.40;;;7.70;99.90;;;;;;4845940;29;20205;-91
2020/12/22 01:57:34;;;;;;;5.00;3.07;;;7.80;99.90;;;;;;4845453;29;20177;-92
2020/12/22 02:00:00;;;;;;;2.83;2.13;;;7.80;99.90;;;;;;4846454;29;20543;-92
2020/12/22 02:02:29;;;;;;;3.50;2.20;;;7.90;99.90;;;;;;4845398;29;20236;-91
2020/12/22 02:04:55;;;;;;;3.00;1.90;;;7.90;99.90;;;;;;4845647;29;20528;-93
2020/12/22 02:07:21;;;;;;;3.47;1.80;;;8.00;99.90;;;;;;4845233;29;20256;-92
2020/12/22 02:09:49;;;;;;;3.70;1.90;;;8.00;99.90;;;;;;4846400;29;20189;-91
2020/12/22 02:12:18;;;;;;;7.23;2.23;;;8.10;99.90;;;;;;4845707;29;20248;-94
2020/12/22 02:14:45;;;;;;;5.53;1.80;;;8.10;99.90;;;;;;4845932;29;20209;-94
2020/12/22 02:17:13;;;;;;;3.67;2.07;;;8.10;99.90;;;;;;4845516;29;20176;-92
2020/12/22 02:19:38;;;;;;;4.30;2.30;;;8.10;99.90;;;;;;4845396;29;20624;-93
2020/12/22 02:22:05;;;;;;;2.57;2.00;;;8.20;99.90;;;;;;4845351;29;20218;-92
2020/12/22 02:24:35;;;;;;;3.67;2.07;;;8.20;99.90;;;;;;4845118;29;20185;-92
2020/12/22 02:27:04;;;;;;;4.10;2.30;;;8.20;99.90;;;;;;4844763;29;20241;-91
2020/12/22 02:29:32;;;;;;;3.63;2.20;;;8.30;99.90;;;;;;4844895;29;20178;-93
2020/12/22 02:31:59;;;;;;;5.30;2.40;;;8.30;99.90;;;;;;4844932;29;20229;-91
2020/12/22 02:34:25;;;;;;;5.40;2.30;;;8.30;99.90;;;;;;4844576;29;20219;-91
2020/12/22 02:36:51;;;;;;;5.90;2.03;;;8.30;99.90;;;;;;4844956;29;20618;-91
2020/12/22 02:39:17;;;;;;;3.47;2.23;;;8.40;99.90;;;;;;4844665;29;20182;-92
2020/12/22 02:41:42;;;;;;;2.80;2.17;;;8.40;99.90;;;;;;4844296;29;20201;-92
2020/12/22 02:44:08;;;;;;;3.10;2.17;;;8.50;99.90;;;;;;4844591;29;20212;-92
2020/12/22 02:46:34;;;;;;;2.90;2.37;;;8.50;99.90;;;;;;4844266;29;20188;-92
2020/12/22 02:49:01;;;;;;;4.03;2.80;;;8.50;99.90;;;;;;4844209;29;20711;-92
2020/12/22 02:51:31;;;;;;;3.67;2.50;;;8.50;99.90;;;;;;4844111;29;20212;-94
2020/12/22 02:53:57;;;;;;;4.43;2.67;;;8.60;99.90;;;;;;4844284;29;20201;-92
2020/12/22 02:56:22;;;;;;;4.57;2.37;;;8.50;99.90;;;;;;4844049;29;20181;-92
2020/12/22 02:58:51;;;;;;;4.67;2.60;;;8.60;99.90;;;;;;4844240;29;20181;-92
2020/12/22 03:01:17;;;;;;;5.30;2.67;;;8.60;99.90;;;;;;4846663;29;20281;-93
2020/12/22 03:03:45;;;;;;;4.57;2.60;;;8.60;99.90;;;;;;4846746;29;20181;-93
2020/12/22 03:06:10;;;;;;;3.80;2.70;;;8.60;99.90;;;;;;4847016;29;20693;-92
2020/12/22 03:08:36;;;;;;;4.30;2.53;;;8.70;99.90;;;;;;4846293;29;20287;-92
2020/12/22 03:11:03;;;;;;;5.23;2.90;;;8.80;99.90;;;;;;4847105;29;20269;-92
2020/12/22 03:13:29;;;;;;;3.43;2.50;;;8.80;99.90;;;;;;4846648;29;20599;-92
2020/12/22 03:15:55;;;;;;;4.30;2.63;;;8.90;99.90;;;;;;4846788;29;20295;-92
2020/12/22 03:18:22;;;;;;;5.43;2.73;;;8.90;99.90;;;;;;4846670;29;20639;-93
2020/12/22 03:20:49;;;;;;;7.97;2.60;;;8.90;99.90;;;;;;4846487;29;20743;-93
2020/12/22 03:23:17;;;;;;;11.00;2.37;;;8.90;99.90;;;;;;4846611;29;20271;-92
2020/12/22 03:25:45;;;;;;;3.37;1.90;;;8.90;99.90;;;;;;4846424;29;20646;-92
2020/12/22 03:28:11;;;;;;;2.23;1.50;;;8.90;99.90;;;;;;4846618;29;20177;-92
2020/12/22 03:30:37;;;;;;;1.90;1.40;;;9.00;99.90;;;;;;4846475;29;20212;-92
2020/12/22 03:33:03;;;;;;;2.67;1.30;;;9.00;99.90;;;;;;4846516;29;20184;-91
2020/12/22 03:35:29;;;;;;;1.87;1.30;;;9.00;99.90;;;;;;4846314;29;20578;-91
2020/12/22 03:37:54;;;;;;;1.23;1.10;;;9.00;99.90;;;;;;4846393;29;20187;-91
2020/12/22 03:40:20;;;;;;;1.97;1.50;;;9.00;99.90;;;;;;4846095;29;20253;-94
2020/12/22 03:42:46;;;;;;;2.27;1.13;;;9.10;99.90;;;;;;4846166;29;20209;-92
2020/12/22 03:45:12;;;;;;;3.37;1.30;;;9.10;99.90;;;;;;4846103;29;20249;-93
2020/12/22 03:47:37;;;;;;;2.13;1.67;;;9.10;99.90;;;;;;5209410;24;20248;-90
2020/12/22 03:50:04;;;;;;;3.30;1.50;;;9.20;99.90;;;;;;4861145;29;20215;-89
2020/12/22 03:52:29;;;;;;;3.67;1.50;;;9.20;99.90;;;;;;4843100;29;20233;-91
2020/12/22 03:54:55;;;;;;;2.43;1.50;;;9.20;99.90;;;;;;4842722;29;20197;-90
2020/12/22 03:57:21;;;;;;;2.87;1.43;;;9.20;99.90;;;;;;4842437;29;20544;-89
2020/12/22 03:59:46;;;;;;;2.00;1.60;;;9.30;99.90;;;;;;4842522;29;20197;-90
2020/12/22 04:02:12;;;;;;;1.67;1.20;;;9.30;99.90;;;;;;4842493;29;20241;-91
2020/12/22 04:04:38;;;;;;;1.43;1.20;;;9.40;99.90;;;;;;4842742;29;20173;-89
2020/12/22 04:07:04;;;;;;;1.60;0.90;;;9.30;99.90;;;;;;4843644;29;20642;-91
2020/12/22 04:09:30;;;;;;;1.10;1.00;;;9.30;99.90;;;;;;4842541;29;20177;-89
2020/12/22 04:11:56;;;;;;;1.27;1.00;;;9.30;99.90;;;;;;4842443;29;20204;-89
2020/12/22 04:14:22;;;;;;;2.43;0.80;;;9.30;99.90;;;;;;4842273;29;20201;-90
2020/12/22 04:16:48;;;;;;;1.10;0.90;;;9.30;99.90;;;;;;4842316;29;20169;-88
2020/12/22 04:19:15;;;;;;;1.40;1.03;;;9.40;99.90;;;;;;4842130;29;20554;-89
2020/12/22 04:21:41;;;;;;;2.23;1.00;;;9.40;99.90;;;;;;4842267;29;20209;-92
2020/12/22 04:24:07;;;;;;;0.90;0.80;;;9.40;99.90;;;;;;4842687;29;20181;-91
2020/12/22 04:26:33;;;;;;;1.00;0.80;;;9.50;99.90;;;;;;4842280;29;20636;-90
2020/12/22 04:29:00;;;;;;;1.10;0.80;;;9.50;99.90;;;;;;4842158;29;20226;-91
2020/12/22 04:31:26;;;;;;;0.90;0.80;;;9.50;99.90;;;;;;4842551;29;20205;-90
2020/12/22 04:33:53;;;;;;;2.27;0.90;;;9.50;99.90;;;;;;4842323;29;20173;-90
2020/12/22 04:36:20;;;;;;;0.83;0.83;;;9.50;99.90;;;;;;4842288;29;20209;-91
2020/12/22 04:38:46;;;;;;;1.83;1.00;;;9.60;99.90;;;;;;4842304;29;20170;-89
2020/12/22 04:41:14;;;;;;;2.40;0.93;;;9.60;99.90;;;;;;4841975;29;20288;-90
2020/12/22 04:43:41;;;;;;;1.93;1.00;;;9.70;99.90;;;;;;4842104;29;20173;-90
2020/12/22 04:46:08;;;;;;;0.83;0.80;;;9.80;99.90;;;;;;4842088;29;20177;-90
2020/12/22 04:48:37;;;;;;;1.30;1.10;;;9.80;99.90;;;;;;4841963;29;20255;-92
2020/12/22 04:51:11;;;;;;;1.30;0.80;;;9.90;99.90;;;;;;4842117;29;20215;-90
2020/12/22 04:53:38;;;;;;;1.07;0.90;;;9.90;99.90;;;;;;4842229;29;20187;-89
2020/12/22 04:56:06;;;;;;;0.90;0.90;;;9.80;99.90;;;;;;4841688;29;20235;-89
2020/12/22 04:58:33;;;;;;;1.07;0.97;;;9.80;99.90;;;;;;4842059;29;20546;-88
2020/12/22 05:00:59;;;;;;;1.10;1.00;;;9.80;99.90;;;;;;4841969;29;20254;-91
2020/12/22 05:03:25;;;;;;;0.97;0.90;;;9.80;99.90;;;;;;4841923;29;20184;-90
2020/12/22 05:05:53;;;;;;;1.13;1.03;;;9.70;99.90;;;;;;4842076;29;20269;-90
2020/12/22 05:08:19;;;;;;;2.20;0.93;;;9.70;99.90;;;;;;4841984;29;20186;-90
2020/12/22 05:10:47;;;;;;;3.10;1.03;;;9.70;99.90;;;;;;4841806;29;20214;-90
2020/12/22 05:13:14;;;;;;;1.10;1.00;;;9.80;99.90;;;;;;4841943;29;20281;-89
2020/12/22 05:15:42;;;;;;;1.93;1.10;;;9.80;99.90;;;;;;4841961;29;20212;-89
2020/12/22 05:18:08;;;;;;;1.60;1.10;;;9.80;99.90;;;;;;4841759;29;20201;-88
2020/12/22 05:20:33;;;;;;;1.10;0.90;;;9.70;99.90;;;;;;4841864;29;20734;-90
2020/12/22 05:22:59;;;;;;;0.90;0.70;;;9.80;99.90;;;;;;4841963;29;20177;-89
2020/12/22 05:25:28;;;;;;;1.27;1.00;;;9.80;99.90;;;;;;4841807;29;20188;-90
2020/12/22 05:27:56;;;;;;;1.10;1.00;;;9.80;99.90;;;;;;4842024;29;21066;-91
2020/12/22 05:30:24;;;;;;;1.50;0.90;;;9.80;99.90;;;;;;4841675;29;20181;-89
2020/12/22 05:32:51;;;;;;;1.57;1.30;;;9.80;99.90;;;;;;4844126;29;20326;-90
2020/12/22 05:35:18;;;;;;;1.60;1.20;;;9.80;99.90;;;;;;4845276;29;20209;-88
2020/12/22 05:37:46;;;;;;;2.30;0.83;;;9.90;99.90;;;;;;4845151;29;20276;-90
2020/12/22 05:40:15;;;;;;;0.93;0.80;;;9.80;99.90;;;;;;4845231;29;20177;-89
2020/12/22 05:42:42;;;;;;;1.00;0.83;;;9.90;99.90;;;;;;4845247;29;20173;-89
2020/12/22 05:45:09;;;;;;;2.07;0.90;;;9.90;99.90;;;;;;4845275;29;20185;-89
2020/12/22 05:47:35;;;;;;;1.77;0.80;;;9.90;99.90;;;;;;4844781;29;20245;-90
2020/12/22 05:50:03;;;;;;;0.87;0.80;;;9.90;99.90;;;;;;4845020;29;20178;-89
2020/12/22 05:52:30;;;;;;;1.33;1.00;;;9.90;99.90;;;;;;4844668;29;20220;-90
2020/12/22 05:54:58;;;;;;;1.10;1.00;;;9.90;99.90;;;;;;4844875;29;20238;-91
2020/12/22 05:57:26;;;;;;;0.80;0.80;;;9.90;99.90;;;;;;4844587;29;20193;-89
2020/12/22 05:59:53;;;;;;;2.77;1.03;;;10.00;99.90;;;;;;4844746;29;20181;-89
2020/12/22 06:02:30;;;;;;;0.73;0.70;;;10.10;99.90;;;;;;4844718;29;20208;-89
2020/12/22 06:05:02;;;;;;;1.40;0.90;;;10.00;99.90;;;;;;4844698;29;20211;-92
2020/12/22 06:07:29;;;;;;;0.73;0.73;;;10.10;99.90;;;;;;4844567;29;20188;-90
2020/12/22 06:09:55;;;;;;;1.03;0.90;;;10.10;99.90;;;;;;4844635;29;20701;-92
2020/12/22 06:12:22;;;;;;;0.93;0.80;;;10.20;99.90;;;;;;4844425;29;20579;-89
2020/12/22 06:14:50;;;;;;;2.17;0.83;;;10.20;99.90;;;;;;4844378;29;20666;-90
2020/12/22 06:17:16;;;;;;;1.57;0.90;;;10.10;99.90;;;;;;4844533;29;20177;-90
2020/12/22 06:19:44;;;;;;;1.63;0.80;;;10.20;99.90;;;;;;4844407;29;20184;-89
2020/12/22 06:22:15;;;;;;;2.40;1.10;;;10.20;99.90;;;;;;4844180;29;20212;-90
2020/12/22 06:24:42;;;;;;;0.67;0.67;;;10.20;99.90;;;;;;4844241;29;20179;-92
2020/12/22 06:27:12;;;;;;;0.80;0.80;;;10.30;99.90;;;;;;4844272;29;20185;-89
2020/12/22 06:29:43;;;;;;;2.47;0.97;;;10.40;99.90;;;;;;4844214;29;20309;-91
2020/12/22 06:32:24;;;;;;;3.60;0.93;;;10.30;99.90;;;;;;4844204;29;20292;-91
2020/12/22 06:34:55;;;;;;;2.53;0.80;;;10.30;99.90;;;;;;4844108;29;20547;-90
2020/12/22 06:37:42;;;;;;;1.10;1.00;;;10.30;99.90;;;;;;4843977;29;20197;-92
2020/12/22 06:40:08;;;;;;;1.37;1.27;;;10.30;99.90;;;;;;4843949;29;20189;-91
2020/12/22 06:42:40;;;;;;;1.33;0.80;;;10.30;99.90;;;;;;4844016;29;20205;-90
2020/12/22 06:45:29;;;;;;;1.47;0.80;;;10.30;99.90;;;;;;4844096;29;20182;-91
2020/12/22 06:47:55;;;;;;;2.27;0.80;;;10.30;99.90;;;;;;4843992;29;20297;-92
2020/12/22 06:50:40;;;;;;;2.00;0.77;;;10.40;99.90;;;;;;4843941;29;20229;-90
2020/12/22 06:53:26;;;;;;;1.20;0.73;;;10.40;99.90;;;;;;4843708;29;20185;-90
2020/12/22 06:55:52;;;;;;;0.73;0.73;;;10.40;99.90;;;;;;4843516;29;20341;-90
2020/12/22 06:58:37;;;;;;;1.33;0.90;;;10.40;99.90;;;;;;4843716;29;20185;-89
2020/12/22 07:01:37;;;;;;;1.07;0.97;;;10.50;99.90;;;;;;4843602;29;20232;-89
2020/12/22 07:04:20;;;;;;;1.40;1.00;;;10.50;99.90;;;;;;4823545;29;20193;-90
2020/12/22 07:06:58;;;;;;;0.80;0.80;;;10.50;99.90;;;;;;4843570;29;20273;-91
2020/12/22 07:09:33;;;;;;;3.13;1.23;;;10.50;99.90;;;;;;4843352;29;20704;-89
2020/12/22 07:12:10;;;;;;;1.20;1.10;;;10.60;99.90;;;;;;4843565;29;20212;-90
2020/12/22 07:14:45;;;;;;;1.20;1.10;;;10.60;99.90;;;;;;4843462;29;20676;-90
2020/12/22 07:17:14;;;;;;;1.30;1.00;;;10.60;99.90;;;;;;4843690;29;20199;-90
2020/12/22 07:19:45;;;;;;;2.13;1.00;;;10.60;99.90;;;;;;4843550;29;20182;-89
2020/12/22 07:22:13;;;;;;;4.80;1.30;;;10.60;99.90;;;;;;4843214;29;20346;-91
2020/12/22 07:24:38;;;;;;;1.97;1.13;;;10.70;99.90;;;;;;4843192;29;20268;-91
2020/12/22 07:27:06;;;;;;;1.20;1.10;;;10.70;99.90;;;;;;4843224;29;20341;-90
2020/12/22 07:29:35;;;;;;;1.93;1.30;;;10.80;99.90;;;;;;4843254;29;20204;-90
2020/12/22 07:32:02;;;;;;;1.93;1.60;;;10.80;99.90;;;;;;4842944;29;20219;-89
2020/12/22 07:34:27;;;;;;;2.03;1.57;;;10.80;99.90;;;;;;4842996;29;20212;-91
2020/12/22 07:37:03;;;;;;;1.80;1.70;;;10.80;99.90;;;;;;4843087;29;20650;-91
2020/12/22 07:39:31;;;;;;;2.73;1.93;;;10.90;99.90;;;;;;4843175;29;20178;-90
2020/12/22 07:42:06;;;;;;;2.20;2.00;;;10.90;99.90;;;;;;4842826;29;20206;-89
2020/12/22 07:44:32;;;;;;;3.63;2.13;;;11.00;99.90;;;;;;4843032;29;20183;-90
2020/12/22 07:46:57;;;;;;;2.47;2.27;;;11.10;99.90;;;;;;4842612;29;20233;-90
2020/12/22 07:49:24;;;;;;;2.40;2.20;;;11.10;99.90;;;;;;4842837;29;20214;-90
2020/12/22 07:51:50;;;;;;;2.50;2.30;;;11.10;99.90;;;;;;4842726;29;20266;-91
2020/12/22 07:54:16;;;;;;;2.73;2.00;;;11.10;99.90;;;;;;4842229;29;20193;-91
2020/12/22 07:56:46;;;;;;;3.03;2.50;;;11.10;99.90;;;;;;4842790;29;20590;-90
2020/12/22 07:59:13;;;;;;;3.13;2.50;;;11.10;99.90;;;;;;4843850;29;20180;-91
2020/12/22 08:01:43;;;;;;;4.18;3.20;;;11.20;99.90;;;;;;4842500;29;20682;-90
2020/12/22 08:04:21;;;;;;;5.90;3.63;;;11.20;99.90;;;;;;4842715;29;20182;-90
2020/12/22 08:06:57;;;;;;;5.72;4.30;;;11.30;99.90;;;;;;4843019;29;20181;-90
2020/12/22 08:09:30;;;;;;;5.93;4.63;;;11.30;99.90;;;;;;4842643;29;20180;-91
2020/12/22 08:12:01;;;;;;;4.82;4.43;;;11.40;99.90;;;;;;4842614;29;20205;-91
2020/12/22 08:14:28;;;;;;;5.47;4.90;;;11.40;99.90;;;;;;4842619;29;20281;-90
2020/12/22 08:17:03;;;;;;;5.63;5.10;;;11.40;99.90;;;;;;4842746;29;20268;-91
2020/12/22 08:19:30;;;;;;;6.43;5.32;;;11.40;99.90;;;;;;4842914;29;20180;-90
2020/12/22 08:21:59;;;;;;;6.60;5.88;;;11.50;99.90;;;;;;4842460;29;20212;-92
2020/12/22 08:24:27;;;;;;;6.55;5.90;;;11.50;99.90;;;;;;4842576;29;20782;-91
2020/12/22 08:26:53;;;;;;;6.57;5.90;;;11.50;99.90;;;;;;4842530;29;20177;-91
2020/12/22 08:29:19;;;;;;;7.30;6.60;;;11.60;99.90;;;;;;4842458;29;20178;-91
2020/12/22 08:31:46;;;;;;;9.40;6.68;;;11.60;99.90;;;;;;4842329;29;20247;-90
2020/12/22 08:34:17;;;;;;;7.63;6.28;;;11.60;99.90;;;;;;4842293;29;20185;-91
2020/12/22 08:36:44;;;;;;;7.20;6.50;;;11.60;99.90;;;;;;4842236;29;20177;-90
2020/12/22 08:39:21;;;;;;;7.03;6.32;;;11.60;99.90;;;;;;4842266;29;20177;-90
2020/12/22 08:41:50;;;;;;;7.35;6.22;;;11.60;99.90;;;;;;4842126;29;20297;-92
2020/12/22 08:44:17;;;;;;;6.75;6.15;;;11.70;99.90;;;;;;4842255;29;20273;-90
2020/12/22 08:46:44;;;;;;;9.30;6.60;;;11.70;99.90;;;;;;4842014;29;20588;-91
2020/12/22 08:49:14;;;;;;;8.13;6.68;;;11.70;99.90;;;;;;4842269;29;20192;-90
2020/12/22 08:51:42;;;;;;;7.85;6.95;;;11.70;99.90;;;;;;4842044;29;20681;-90
2020/12/22 08:54:09;;;;;;;8.65;7.43;;;11.70;99.90;;;;;;4842169;29;20181;-90
2020/12/22 08:56:37;;;;;;;8.83;6.93;;;11.70;99.90;;;;;;4842091;29;20742;-91
2020/12/22 08:59:07;;;;;;;7.68;6.88;;;11.80;99.90;;;;;;4842247;29;20185;-91
2020/12/22 09:01:42;;;;;;;7.13;6.47;;;11.80;99.90;;;;;;4841995;29;20201;-91
2020/12/22 09:04:10;;;;;;;7.53;5.93;;;11.80;99.90;;;;;;4841917;29;20630;-90
2020/12/22 09:06:44;;;;;;;6.03;5.28;;;11.80;99.90;;;;;;4842792;29;20195;-90
2020/12/22 09:09:30;;;;;;;5.93;5.05;;;11.90;99.90;;;;;;4845695;29;20188;-92
2020/12/22 09:12:16;;;;;;;5.53;4.93;;;11.80;99.90;;;;;;4845577;29;20674;-91
2020/12/22 09:14:47;;;;;;;8.23;4.85;;;11.90;99.90;;;;;;4845233;29;20608;-89
2020/12/22 09:17:30;;;;;;;4.60;4.20;;;11.90;99.90;;;;;;4845800;29;20204;-92
2020/12/22 09:19:56;;;;;;;4.50;4.10;;;12.00;99.90;;;;;;4845536;29;20178;-89
2020/12/22 09:22:25;;;;;;;5.10;4.22;;;12.00;99.90;;;;;;4845279;29;20736;-89
2020/12/22 09:24:51;;;;;;;4.40;3.75;;;12.00;99.90;;;;;;4844294;29;20196;-91
2020/12/22 09:27:27;;;;;;;4.20;3.58;;;12.00;99.90;;;;;;4845338;29;20181;-90
2020/12/22 09:29:53;;;;;;;3.05;2.85;;;12.00;99.90;;;;;;4845448;29;20638;-90
2020/12/22 09:32:19;;;;;;;2.95;2.75;;;12.00;99.90;;;;;;4845186;29;20215;-90
2020/12/22 09:34:44;;;;;;;7.05;3.15;;;12.00;99.90;;;;;;4845145;29;20208;-91
2020/12/22 09:37:10;;;;;;;4.03;2.20;;;12.10;99.90;;;;;;4845233;29;20236;-90
2020/12/22 09:39:37;;;;;;;3.00;1.52;;;12.20;99.90;;;;;;4845068;29;20234;-92
2020/12/22 09:42:05;;;;;;;3.35;1.55;;;12.20;99.90;;;;;;4845095;29;20284;-89
2020/12/22 09:44:31;;;;;;;3.70;1.15;;;12.30;99.90;;;;;;4845127;29;20178;-90
2020/12/22 09:46:57;;;;;;;2.05;0.98;;;12.50;99.90;;;;;;4844797;29;20305;-91
2020/12/22 09:49:24;;;;;;;2.58;0.90;;;12.50;99.90;;;;;;4844930;29;20185;-89
2020/12/22 09:51:50;;;;;;;1.30;0.90;;;12.60;99.90;;;;;;4844888;29;20336;-92
2020/12/22 09:54:16;;;;;;;1.45;0.90;;;12.50;99.90;;;;;;4844757;29;20324;-91
2020/12/22 09:56:42;;;;;;;1.50;0.80;;;12.60;99.90;;;;;;4845255;29;20181;-89
2020/12/22 09:59:08;;;;;;;1.08;0.80;;;12.50;99.90;;;;;;4845024;29;20565;-90
2020/12/22 10:01:34;;;;;;;3.17;0.95;;;12.60;99.90;;;;;;4844773;29;20201;-90
2020/12/22 10:04:00;;;;;;;1.38;0.70;;;12.60;99.90;;;;;;4844830;29;20279;-90
2020/12/22 10:06:28;;;;;;;3.08;0.88;;;12.60;99.90;;;;;;4844455;29;20284;-91
2020/12/22 10:08:55;;;;;;;3.78;0.77;;;12.60;99.90;;;;;;4844815;29;20561;-90
2020/12/22 10:11:25;;;;;;;2.75;0.80;;;12.50;99.90;;;;;;4844635;29;20205;-91
2020/12/22 10:13:52;;;;;;;2.85;1.08;;;12.60;99.90;;;;;;4844881;29;20196;-90
2020/12/22 10:16:20;;;;;;;3.72;0.80;;;12.50;99.90;;;;;;4844491;29;20208;-90
2020/12/22 10:18:46;;;;;;;2.70;0.70;;;12.60;99.90;;;;;;4843863;29;20638;-91
2020/12/22 10:21:14;;;;;;;4.10;0.73;;;12.60;99.90;;;;;;4844382;29;20208;-91
2020/12/22 10:23:41;;;;;;;1.75;0.68;;;12.60;99.90;;;;;;4844534;29;20264;-90
2020/12/22 10:26:12;;;;;;;3.65;0.98;;;12.60;99.90;;;;;;4844406;29;20765;-90
2020/12/22 10:28:40;;;;;;;1.52;0.70;;;12.70;99.90;;;;;;4844459;29;20201;-91
2020/12/22 10:31:13;;;;;;;1.42;0.60;;;12.70;99.90;;;;;;4844299;29;20205;-92
2020/12/22 10:33:38;;;;;;;1.45;0.73;;;12.70;99.90;;;;;;4844199;29;20233;-90
2020/12/22 10:36:04;;;;;;;3.45;0.90;;;12.80;99.90;;;;;;4844093;29;20217;-91
2020/12/22 10:38:30;;;;;;;1.92;0.60;;;12.80;99.90;;;;;;4844186;29;20264;-94
2020/12/22 10:40:59;;;;;;;2.47;0.70;;;12.80;99.90;;;;;;4843933;29;20649;-91
2020/12/22 10:43:24;;;;;;;1.98;0.55;;;12.70;99.90;;;;;;4843986;29;20188;-90
2020/12/22 10:45:50;;;;;;;2.72;0.90;;;12.60;99.90;;;;;;4844103;29;20182;-90
2020/12/22 10:48:16;;;;;;;3.53;1.00;;;12.70;99.90;;;;;;4843878;29;20251;-91
2020/12/22 10:50:42;;;;;;;2.60;0.75;;;12.70;99.90;;;;;;4843962;29;20217;-92
2020/12/22 10:53:08;;;;;;;2.67;0.88;;;12.70;99.90;;;;;;4844174;29;20197;-92
2020/12/22 10:55:35;;;;;;;4.72;0.70;;;12.70;99.90;;;;;;4844273;29;20309;-90
2020/12/22 10:58:02;;;;;;;4.72;0.98;;;12.70;99.90;;;;;;4843722;29;20626;-91
2020/12/22 11:00:27;;;;;;;4.18;0.88;;;12.70;99.90;;;;;;4843922;29;20177;-90
2020/12/22 11:02:54;;;;;;;2.47;0.73;;;12.70;99.90;;;;;;4843892;29;20180;-90
2020/12/22 11:08:06;;;;;;;6.15;0.70;;;13.00;99.90;;;;;;4845023;29;20173;-90
2020/12/22 11:10:32;;;;;;;2.22;0.88;;;12.90;99.90;;;;;;4843519;29;20217;-91
2020/12/22 11:12:58;;;;;;;2.50;0.80;;;12.90;99.90;;;;;;4843550;29;20551;-91
2020/12/22 11:15:24;;;;;;;2.28;0.57;;;12.90;99.90;;;;;;4843338;29;20201;-92
2020/12/22 11:17:50;;;;;;;1.60;0.88;;;12.90;99.90;;;;;;4843571;29;20169;-90
2020/12/22 11:20:16;;;;;;;1.15;0.60;;;12.90;99.90;;;;;;4843409;29;20264;-91
2020/12/22 11:22:42;;;;;;;2.72;0.90;;;13.00;99.90;;;;;;4843661;29;20713;-91
2020/12/22 11:25:09;;;;;;;1.60;0.65;;;13.00;99.90;;;;;;4843272;29;20219;-92
2020/12/22 11:27:35;;;;;;;1.63;0.73;;;13.10;99.90;;;;;;4843242;29;20226;-93
2020/12/22 11:30:01;;;;;;;3.25;1.00;;;13.30;99.90;;;;;;4842377;29;20193;-93
2020/12/22 11:32:26;;;;;;;3.75;1.13;;;13.40;99.90;;;;;;4843100;29;20261;-91
2020/12/22 11:34:52;;;;;;;1.27;0.80;;;13.30;99.90;;;;;;4843079;29;20217;-91
2020/12/22 11:37:18;;;;;;;1.67;0.95;;;13.20;99.90;;;;;;4843201;29;20718;-91
2020/12/22 11:39:46;;;;;;;1.85;0.90;;;13.20;99.90;;;;;;4843058;29;20269;-90
2020/12/22 11:42:13;;;;;;;3.47;1.10;;;13.10;99.90;;;;;;4842582;29;20288;-91
2020/12/22 11:44:39;;;;;;;2.22;1.10;;;13.10;99.90;;;;;;4843062;29;20238;-92
2020/12/22 11:47:05;;;;;;;4.45;0.90;;;13.10;99.90;;;;;;4843045;29;20233;-91
2020/12/22 11:49:31;;;;;;;1.83;0.80;;;13.20;99.90;;;;;;4843132;29;20185;-90
2020/12/22 11:51:58;;;;;;;1.48;0.75;;;13.20;99.90;;;;;;4843398;29;20212;-90
2020/12/22 11:54:24;;;;;;;1.15;0.68;;;13.20;99.90;;;;;;4843021;29;20173;-91
2020/12/22 11:56:51;;;;;;;6.20;1.00;;;13.20;99.90;;;;;;4842936;29;20173;-90
2020/12/22 11:59:18;;;;;;;1.98;0.80;;;13.30;99.90;;;;;;4843078;29;20522;-90
2020/12/22 12:01:45;;;;;;;2.30;0.80;;;13.40;99.90;;;;;;4842769;29;20205;-91
2020/12/22 12:04:11;;;;;;;2.38;0.80;;;13.40;99.90;;;;;;4842676;29;20173;-91
2020/12/22 12:06:37;;;;;;;1.08;0.80;;;13.40;99.90;;;;;;4842656;29;20231;-91
2020/12/22 12:09:05;;;;;;;1.45;0.75;;;13.40;99.90;;;;;;4842786;29;20173;-91
2020/12/22 12:11:34;;;;;;;1.13;0.65;;;13.30;99.90;;;;;;4843132;29;20248;-92
2020/12/22 12:14:00;;;;;;;3.08;0.70;;;13.30;99.90;;;;;;4842652;29;20278;-92
2020/12/22 12:16:25;;;;;;;1.75;1.00;;;13.30;99.90;;;;;;4842485;29;20288;-90
2020/12/22 12:18:51;;;;;;;1.73;0.77;;;13.20;99.90;;;;;;4842600;29;20173;-92
2020/12/22 12:21:17;;;;;;;2.65;0.57;;;13.20;99.90;;;;;;4842475;29;20209;-93
2020/12/22 12:23:43;;;;;;;1.40;0.70;;;13.10;99.90;;;;;;4842551;29;20198;-93
2020/12/22 12:26:13;;;;;;;1.20;0.85;;;13.10;99.90;;;;;;4842387;29;20170;-92
2020/12/22 12:28:39;;;;;;;1.52;0.70;;;13.00;99.90;;;;;;4842749;29;20181;-93
2020/12/22 12:31:05;;;;;;;1.23;0.70;;;13.10;99.90;;;;;;4842373;29;20202;-91
2020/12/22 12:33:32;;;;;;;1.02;0.70;;;13.00;99.90;;;;;;4842534;29;20229;-93
2020/12/22 12:35:58;;;;;;;1.92;0.73;;;13.00;99.90;;;;;;4842291;29;20197;-92
2020/12/22 12:38:23;;;;;;;3.85;0.90;;;12.90;99.90;;;;;;4842480;29;20170;-92
2020/12/22 12:40:49;;;;;;;2.45;1.02;;;12.80;99.90;;;;;;4843434;29;20551;-91
2020/12/22 12:43:15;;;;;;;1.95;0.90;;;12.70;99.90;;;;;;4846136;29;20202;-92
2020/12/22 12:45:41;;;;;;;2.00;0.98;;;12.60;99.90;;;;;;4846186;29;20249;-92
2020/12/22 12:48:06;;;;;;;1.33;0.80;;;12.60;99.90;;;;;;4845962;29;20237;-92
2020/12/22 12:50:32;;;;;;;1.88;0.70;;;12.70;99.90;;;;;;4846000;29;20204;-92
2020/12/22 12:52:58;;;;;;;1.48;0.70;;;12.70;99.90;;;;;;4846134;29;20226;-91
2020/12/22 12:55:24;;;;;;;2.25;0.88;;;12.80;99.90;;;;;;4845867;29;20207;-91